sensor_id;sensor_type;location;lat;lon;timestamp;P1;durP1;ratioP1;P2;durP2;ratioP2
77146;SDS011;66121;52.584;9.694;2024-01-07T00:01:38;8.97;;;5.80;;
77146;SDS011;66121;52.584;9.694;2024-01-07T00:04:03;8.38;;;4.25;;
77146;SDS011;66121;52.584;9.694;2024-01-07T00:06:29;14.77;;;6.43;;
77146;SDS011;66121;52.584;9.694;2024-01-07T00:08:54;10.93;;;6.73;;
77146;SDS011;66121;52.584;9.694;2024-01-07T00:11:19;14.43;;;6.23;;
77146;SDS011;66121;52.584;9.694;2024-01-07T00:13:45;7.05;;;4.80;;
77146;SDS011;66121;52.584;9.694;2024-01-07T00:16:10;8.25;;;5.50;;
77146;SDS011;66121;52.584;9.694;2024-01-07T00:18:36;13.63;;;6.00;;
77146;SDS011;66121;52.584;9.694;2024-01-07T00:21:01;15.10;;;7.10;;
77146;SDS011;66121;52.584;9.694;2024-01-07T00:23:26;12.10;;;6.40;;
77146;SDS011;66121;52.584;9.694;2024-01-07T00:25:52;12.30;;;6.17;;
77146;SDS011;66121;52.584;9.694;2024-01-07T00:28:17;14.30;;;6.53;;
77146;SDS011;66121;52.584;9.694;2024-01-07T00:30:42;12.17;;;5.67;;
77146;SDS011;66121;52.584;9.694;2024-01-07T00:33:07;15.52;;;6.55;;
77146;SDS011;66121;52.584;9.694;2024-01-07T00:35:33;12.23;;;5.67;;
77146;SDS011;66121;52.584;9.694;2024-01-07T00:37:58;15.13;;;5.40;;
77146;SDS011;66121;52.584;9.694;2024-01-07T00:40:24;14.73;;;7.50;;
77146;SDS011;66121;52.584;9.694;2024-01-07T00:42:49;13.07;;;8.02;;
77146;SDS011;66121;52.584;9.694;2024-01-07T00:45:16;11.18;;;5.78;;
77146;SDS011;66121;52.584;9.694;2024-01-07T00:47:41;16.70;;;7.43;;
77146;SDS011;66121;52.584;9.694;2024-01-07T00:50:07;6.97;;;5.18;;
77146;SDS011;66121;52.584;9.694;2024-01-07T00:52:32;12.88;;;6.13;;
77146;SDS011;66121;52.584;9.694;2024-01-07T00:54:57;15.82;;;7.43;;
77146;SDS011;66121;52.584;9.694;2024-01-07T00:57:23;16.30;;;7.93;;
77146;SDS011;66121;52.584;9.694;2024-01-07T00:59:48;14.37;;;5.97;;
77146;SDS011;66121;52.584;9.694;2024-01-07T01:02:15;12.93;;;6.68;;
77146;SDS011;66121;52.584;9.694;2024-01-07T01:04:40;16.30;;;7.28;;
77146;SDS011;66121;52.584;9.694;2024-01-07T01:07:06;18.07;;;9.13;;
77146;SDS011;66121;52.584;9.694;2024-01-07T01:09:32;11.40;;;5.80;;
77146;SDS011;66121;52.584;9.694;2024-01-07T01:11:58;8.45;;;4.60;;
77146;SDS011;66121;52.584;9.694;2024-01-07T01:14:23;15.67;;;6.83;;
77146;SDS011;66121;52.584;9.694;2024-01-07T01:16:48;12.37;;;6.17;;
77146;SDS011;66121;52.584;9.694;2024-01-07T01:19:13;9.57;;;4.93;;
77146;SDS011;66121;52.584;9.694;2024-01-07T01:21:39;12.57;;;6.50;;
77146;SDS011;66121;52.584;9.694;2024-01-07T01:24:04;7.00;;;5.07;;
77146;SDS011;66121;52.584;9.694;2024-01-07T01:26:29;12.18;;;6.07;;
77146;SDS011;66121;52.584;9.694;2024-01-07T01:28:55;12.37;;;5.80;;
77146;SDS011;66121;52.584;9.694;2024-01-07T01:31:20;8.47;;;5.80;;
77146;SDS011;66121;52.584;9.694;2024-01-07T01:33:45;6.40;;;4.68;;
77146;SDS011;66121;52.584;9.694;2024-01-07T01:36:11;9.73;;;5.05;;
77146;SDS011;66121;52.584;9.694;2024-01-07T01:38:36;10.30;;;4.82;;
77146;SDS011;66121;52.584;9.694;2024-01-07T01:41:01;6.27;;;4.13;;
77146;SDS011;66121;52.584;9.694;2024-01-07T01:43:27;10.60;;;5.72;;
77146;SDS011;66121;52.584;9.694;2024-01-07T01:45:54;5.93;;;4.10;;
77146;SDS011;66121;52.584;9.694;2024-01-07T01:48:20;9.38;;;4.93;;
77146;SDS011;66121;52.584;9.694;2024-01-07T01:50:47;11.70;;;5.10;;
77146;SDS011;66121;52.584;9.694;2024-01-07T01:53:13;10.32;;;4.72;;
77146;SDS011;66121;52.584;9.694;2024-01-07T01:55:40;12.40;;;4.95;;
77146;SDS011;66121;52.584;9.694;2024-01-07T01:58:06;12.88;;;6.85;;
77146;SDS011;66121;52.584;9.694;2024-01-07T02:00:34;13.57;;;5.93;;
77146;SDS011;66121;52.584;9.694;2024-01-07T02:02:59;15.77;;;6.30;;
77146;SDS011;66121;52.584;9.694;2024-01-07T02:05:25;4.25;;;3.42;;
77146;SDS011;66121;52.584;9.694;2024-01-07T02:07:51;8.88;;;4.20;;
77146;SDS011;66121;52.584;9.694;2024-01-07T02:10:17;8.43;;;4.68;;
77146;SDS011;66121;52.584;9.694;2024-01-07T02:12:43;12.73;;;5.10;;
77146;SDS011;66121;52.584;9.694;2024-01-07T02:15:08;13.63;;;6.07;;
77146;SDS011;66121;52.584;9.694;2024-01-07T02:17:33;8.52;;;4.60;;
77146;SDS011;66121;52.584;9.694;2024-01-07T02:19:59;7.63;;;4.32;;
77146;SDS011;66121;52.584;9.694;2024-01-07T02:22:24;8.55;;;4.70;;
77146;SDS011;66121;52.584;9.694;2024-01-07T02:24:50;5.28;;;3.15;;
77146;SDS011;66121;52.584;9.694;2024-01-07T02:27:15;8.13;;;4.60;;
77146;SDS011;66121;52.584;9.694;2024-01-07T02:29:41;17.20;;;6.45;;
77146;SDS011;66121;52.584;9.694;2024-01-07T02:32:06;9.70;;;4.80;;
77146;SDS011;66121;52.584;9.694;2024-01-07T02:34:31;9.30;;;4.63;;
77146;SDS011;66121;52.584;9.694;2024-01-07T02:36:56;10.03;;;4.90;;
77146;SDS011;66121;52.584;9.694;2024-01-07T02:39:22;7.30;;;3.50;;
77146;SDS011;66121;52.584;9.694;2024-01-07T02:41:47;6.17;;;3.30;;
77146;SDS011;66121;52.584;9.694;2024-01-07T02:44:14;6.07;;;4.22;;
77146;SDS011;66121;52.584;9.694;2024-01-07T02:46:39;8.77;;;4.20;;
77146;SDS011;66121;52.584;9.694;2024-01-07T02:49:04;6.63;;;2.90;;
77146;SDS011;66121;52.584;9.694;2024-01-07T02:51:30;5.45;;;3.00;;
77146;SDS011;66121;52.584;9.694;2024-01-07T02:53:55;3.03;;;2.33;;
77146;SDS011;66121;52.584;9.694;2024-01-07T02:56:20;7.27;;;3.47;;
77146;SDS011;66121;52.584;9.694;2024-01-07T02:58:45;5.50;;;3.67;;
77146;SDS011;66121;52.584;9.694;2024-01-07T03:01:11;4.10;;;2.77;;
77146;SDS011;66121;52.584;9.694;2024-01-07T03:03:36;6.18;;;2.75;;
77146;SDS011;66121;52.584;9.694;2024-01-07T03:06:02;6.70;;;3.17;;
77146;SDS011;66121;52.584;9.694;2024-01-07T03:08:28;4.68;;;2.88;;
77146;SDS011;66121;52.584;9.694;2024-01-07T03:10:53;5.13;;;2.80;;
77146;SDS011;66121;52.584;9.694;2024-01-07T03:13:19;5.63;;;3.35;;
77146;SDS011;66121;52.584;9.694;2024-01-07T03:15:44;5.55;;;3.05;;
77146;SDS011;66121;52.584;9.694;2024-01-07T03:18:09;4.50;;;3.00;;
77146;SDS011;66121;52.584;9.694;2024-01-07T03:20:35;5.97;;;3.60;;
77146;SDS011;66121;52.584;9.694;2024-01-07T03:23:00;4.95;;;3.13;;
77146;SDS011;66121;52.584;9.694;2024-01-07T03:25:26;5.40;;;3.20;;
77146;SDS011;66121;52.584;9.694;2024-01-07T03:27:51;5.27;;;3.43;;
77146;SDS011;66121;52.584;9.694;2024-01-07T03:30:17;3.00;;;2.42;;
77146;SDS011;66121;52.584;9.694;2024-01-07T03:32:42;5.75;;;3.08;;
77146;SDS011;66121;52.584;9.694;2024-01-07T03:35:07;6.20;;;3.10;;
77146;SDS011;66121;52.584;9.694;2024-01-07T03:37:36;4.78;;;1.90;;
77146;SDS011;66121;52.584;9.694;2024-01-07T03:40:02;4.32;;;2.88;;
77146;SDS011;66121;52.584;9.694;2024-01-07T03:42:27;6.78;;;3.05;;
77146;SDS011;66121;52.584;9.694;2024-01-07T03:44:53;4.10;;;2.13;;
77146;SDS011;66121;52.584;9.694;2024-01-07T03:47:18;9.98;;;4.07;;
77146;SDS011;66121;52.584;9.694;2024-01-07T03:49:43;4.30;;;2.75;;
77146;SDS011;66121;52.584;9.694;2024-01-07T03:52:09;4.50;;;2.58;;
77146;SDS011;66121;52.584;9.694;2024-01-07T03:54:34;6.77;;;2.90;;
77146;SDS011;66121;52.584;9.694;2024-01-07T03:56:59;2.20;;;1.70;;
77146;SDS011;66121;52.584;9.694;2024-01-07T03:59:25;14.40;;;4.93;;
77146;SDS011;66121;52.584;9.694;2024-01-07T04:01:53;3.25;;;2.03;;
77146;SDS011;66121;52.584;9.694;2024-01-07T04:04:19;3.95;;;2.53;;
77146;SDS011;66121;52.584;9.694;2024-01-07T04:06:44;9.17;;;3.17;;
77146;SDS011;66121;52.584;9.694;2024-01-07T04:09:09;4.07;;;2.83;;
77146;SDS011;66121;52.584;9.694;2024-01-07T04:11:41;5.10;;;3.00;;
77146;SDS011;66121;52.584;9.694;2024-01-07T04:14:07;4.85;;;2.78;;
77146;SDS011;66121;52.584;9.694;2024-01-07T04:16:33;7.75;;;2.55;;
77146;SDS011;66121;52.584;9.694;2024-01-07T04:18:58;4.00;;;2.47;;
77146;SDS011;66121;52.584;9.694;2024-01-07T04:21:23;5.75;;;2.90;;
77146;SDS011;66121;52.584;9.694;2024-01-07T04:23:49;6.05;;;2.85;;
77146;SDS011;66121;52.584;9.694;2024-01-07T04:26:14;4.60;;;2.70;;
77146;SDS011;66121;52.584;9.694;2024-01-07T04:28:43;5.55;;;3.10;;
77146;SDS011;66121;52.584;9.694;2024-01-07T04:31:09;5.85;;;2.97;;
77146;SDS011;66121;52.584;9.694;2024-01-07T04:33:35;2.35;;;1.20;;
77146;SDS011;66121;52.584;9.694;2024-01-07T04:36:00;4.03;;;2.38;;
77146;SDS011;66121;52.584;9.694;2024-01-07T04:38:26;4.47;;;2.35;;
77146;SDS011;66121;52.584;9.694;2024-01-07T04:40:52;3.10;;;2.05;;
77146;SDS011;66121;52.584;9.694;2024-01-07T04:43:18;3.03;;;1.90;;
77146;SDS011;66121;52.584;9.694;2024-01-07T04:45:44;6.25;;;2.70;;
77146;SDS011;66121;52.584;9.694;2024-01-07T04:48:09;2.90;;;2.17;;
77146;SDS011;66121;52.584;9.694;2024-01-07T04:50:34;3.97;;;2.50;;
77146;SDS011;66121;52.584;9.694;2024-01-07T04:53:00;5.57;;;2.85;;
77146;SDS011;66121;52.584;9.694;2024-01-07T04:55:25;7.10;;;2.63;;
77146;SDS011;66121;52.584;9.694;2024-01-07T04:57:50;4.83;;;2.90;;
77146;SDS011;66121;52.584;9.694;2024-01-07T05:00:16;4.00;;;2.40;;
77146;SDS011;66121;52.584;9.694;2024-01-07T05:02:41;2.42;;;1.88;;
77146;SDS011;66121;52.584;9.694;2024-01-07T05:05:09;5.90;;;2.97;;
77146;SDS011;66121;52.584;9.694;2024-01-07T05:07:35;4.22;;;2.45;;
77146;SDS011;66121;52.584;9.694;2024-01-07T05:10:00;3.30;;;2.00;;
77146;SDS011;66121;52.584;9.694;2024-01-07T05:12:25;4.65;;;2.65;;
77146;SDS011;66121;52.584;9.694;2024-01-07T05:14:51;3.15;;;2.28;;
77146;SDS011;66121;52.584;9.694;2024-01-07T05:17:17;3.70;;;2.22;;
77146;SDS011;66121;52.584;9.694;2024-01-07T05:19:42;4.15;;;2.80;;
77146;SDS011;66121;52.584;9.694;2024-01-07T05:22:08;2.57;;;1.63;;
77146;SDS011;66121;52.584;9.694;2024-01-07T05:24:33;5.63;;;3.38;;
77146;SDS011;66121;52.584;9.694;2024-01-07T05:27:02;4.28;;;2.35;;
77146;SDS011;66121;52.584;9.694;2024-01-07T05:29:27;5.57;;;2.70;;
77146;SDS011;66121;52.584;9.694;2024-01-07T05:31:52;5.67;;;2.77;;
77146;SDS011;66121;52.584;9.694;2024-01-07T05:34:18;3.95;;;2.80;;
77146;SDS011;66121;52.584;9.694;2024-01-07T05:36:43;3.50;;;1.73;;
77146;SDS011;66121;52.584;9.694;2024-01-07T05:39:08;2.10;;;1.30;;
77146;SDS011;66121;52.584;9.694;2024-01-07T05:41:36;4.63;;;2.20;;
77146;SDS011;66121;52.584;9.694;2024-01-07T05:44:03;8.15;;;3.58;;
77146;SDS011;66121;52.584;9.694;2024-01-07T05:46:28;3.28;;;2.53;;
77146;SDS011;66121;52.584;9.694;2024-01-07T05:48:54;4.40;;;2.63;;
77146;SDS011;66121;52.584;9.694;2024-01-07T05:51:19;6.13;;;3.27;;
77146;SDS011;66121;52.584;9.694;2024-01-07T05:53:44;9.48;;;2.15;;
77146;SDS011;66121;52.584;9.694;2024-01-07T05:56:10;3.42;;;2.42;;
77146;SDS011;66121;52.584;9.694;2024-01-07T05:58:36;3.83;;;2.33;;
77146;SDS011;66121;52.584;9.694;2024-01-07T06:01:01;3.40;;;2.20;;
77146;SDS011;66121;52.584;9.694;2024-01-07T06:03:27;5.13;;;2.40;;
77146;SDS011;66121;52.584;9.694;2024-01-07T06:05:52;6.20;;;3.10;;
77146;SDS011;66121;52.584;9.694;2024-01-07T06:08:18;3.33;;;2.07;;
77146;SDS011;66121;52.584;9.694;2024-01-07T06:10:43;4.17;;;2.40;;
77146;SDS011;66121;52.584;9.694;2024-01-07T06:13:08;6.05;;;3.78;;
77146;SDS011;66121;52.584;9.694;2024-01-07T06:15:34;2.43;;;1.80;;
77146;SDS011;66121;52.584;9.694;2024-01-07T06:17:59;5.40;;;2.47;;
77146;SDS011;66121;52.584;9.694;2024-01-07T06:20:24;4.30;;;2.67;;
77146;SDS011;66121;52.584;9.694;2024-01-07T06:22:50;6.45;;;2.58;;
77146;SDS011;66121;52.584;9.694;2024-01-07T06:25:15;5.10;;;2.10;;
77146;SDS011;66121;52.584;9.694;2024-01-07T06:27:41;8.45;;;2.65;;
77146;SDS011;66121;52.584;9.694;2024-01-07T06:30:06;3.88;;;2.65;;
77146;SDS011;66121;52.584;9.694;2024-01-07T06:32:32;4.43;;;2.40;;
77146;SDS011;66121;52.584;9.694;2024-01-07T06:34:58;3.22;;;1.80;;
77146;SDS011;66121;52.584;9.694;2024-01-07T06:37:23;7.47;;;3.60;;
77146;SDS011;66121;52.584;9.694;2024-01-07T06:39:49;4.38;;;2.33;;
77146;SDS011;66121;52.584;9.694;2024-01-07T06:42:14;5.30;;;2.78;;
77146;SDS011;66121;52.584;9.694;2024-01-07T06:44:40;3.38;;;2.45;;
77146;SDS011;66121;52.584;9.694;2024-01-07T06:47:05;5.07;;;2.53;;
77146;SDS011;66121;52.584;9.694;2024-01-07T06:49:30;4.57;;;3.10;;
77146;SDS011;66121;52.584;9.694;2024-01-07T06:51:55;3.67;;;1.80;;
77146;SDS011;66121;52.584;9.694;2024-01-07T06:54:21;7.13;;;2.50;;
77146;SDS011;66121;52.584;9.694;2024-01-07T06:56:46;5.43;;;2.97;;
77146;SDS011;66121;52.584;9.694;2024-01-07T06:59:12;2.53;;;1.80;;
77146;SDS011;66121;52.584;9.694;2024-01-07T07:01:37;4.30;;;2.97;;
77146;SDS011;66121;52.584;9.694;2024-01-07T07:04:03;4.03;;;1.98;;
77146;SDS011;66121;52.584;9.694;2024-01-07T07:06:29;4.28;;;3.28;;
77146;SDS011;66121;52.584;9.694;2024-01-07T07:08:54;4.00;;;1.70;;
77146;SDS011;66121;52.584;9.694;2024-01-07T07:11:20;4.53;;;2.40;;
77146;SDS011;66121;52.584;9.694;2024-01-07T07:13:45;4.67;;;2.93;;
77146;SDS011;66121;52.584;9.694;2024-01-07T07:16:10;5.07;;;2.90;;
77146;SDS011;66121;52.584;9.694;2024-01-07T07:18:37;6.32;;;3.53;;
77146;SDS011;66121;52.584;9.694;2024-01-07T07:21:02;4.80;;;2.78;;
77146;SDS011;66121;52.584;9.694;2024-01-07T07:23:27;6.75;;;2.95;;
77146;SDS011;66121;52.584;9.694;2024-01-07T07:25:53;5.05;;;2.72;;
77146;SDS011;66121;52.584;9.694;2024-01-07T07:28:18;3.80;;;2.10;;
77146;SDS011;66121;52.584;9.694;2024-01-07T07:30:43;4.88;;;2.45;;
77146;SDS011;66121;52.584;9.694;2024-01-07T07:33:09;5.82;;;2.95;;
77146;SDS011;66121;52.584;9.694;2024-01-07T07:35:35;7.47;;;3.47;;
77146;SDS011;66121;52.584;9.694;2024-01-07T07:38:00;7.93;;;3.67;;
77146;SDS011;66121;52.584;9.694;2024-01-07T07:40:26;8.25;;;3.83;;
77146;SDS011;66121;52.584;9.694;2024-01-07T07:42:51;7.15;;;2.97;;
77146;SDS011;66121;52.584;9.694;2024-01-07T07:45:16;4.15;;;2.83;;
77146;SDS011;66121;52.584;9.694;2024-01-07T07:47:42;10.77;;;3.33;;
77146;SDS011;66121;52.584;9.694;2024-01-07T07:50:10;8.70;;;3.53;;
77146;SDS011;66121;52.584;9.694;2024-01-07T07:52:38;5.85;;;3.10;;
77146;SDS011;66121;52.584;9.694;2024-01-07T07:55:03;6.65;;;3.40;;
77146;SDS011;66121;52.584;9.694;2024-01-07T07:57:29;6.65;;;3.33;;
77146;SDS011;66121;52.584;9.694;2024-01-07T07:59:54;6.77;;;3.23;;
77146;SDS011;66121;52.584;9.694;2024-01-07T08:02:20;10.88;;;3.83;;
77146;SDS011;66121;52.584;9.694;2024-01-07T08:04:46;11.38;;;4.10;;
77146;SDS011;66121;52.584;9.694;2024-01-07T08:07:12;5.43;;;3.28;;
77146;SDS011;66121;52.584;9.694;2024-01-07T08:09:38;6.65;;;3.40;;
77146;SDS011;66121;52.584;9.694;2024-01-07T08:12:04;7.63;;;3.87;;
77146;SDS011;66121;52.584;9.694;2024-01-07T08:14:31;8.05;;;3.50;;
77146;SDS011;66121;52.584;9.694;2024-01-07T08:16:57;8.13;;;3.92;;
77146;SDS011;66121;52.584;9.694;2024-01-07T08:19:22;5.80;;;3.20;;
77146;SDS011;66121;52.584;9.694;2024-01-07T08:21:48;8.30;;;3.33;;
77146;SDS011;66121;52.584;9.694;2024-01-07T08:24:13;8.10;;;4.00;;
77146;SDS011;66121;52.584;9.694;2024-01-07T08:26:39;7.70;;;3.33;;
77146;SDS011;66121;52.584;9.694;2024-01-07T08:29:04;6.68;;;3.55;;
77146;SDS011;66121;52.584;9.694;2024-01-07T08:31:30;5.90;;;3.28;;
77146;SDS011;66121;52.584;9.694;2024-01-07T08:33:56;4.50;;;3.15;;
77146;SDS011;66121;52.584;9.694;2024-01-07T08:36:21;5.78;;;3.38;;
77146;SDS011;66121;52.584;9.694;2024-01-07T08:38:47;8.27;;;3.38;;
77146;SDS011;66121;52.584;9.694;2024-01-07T08:41:14;8.50;;;3.70;;
77146;SDS011;66121;52.584;9.694;2024-01-07T08:43:40;5.13;;;2.72;;
77146;SDS011;66121;52.584;9.694;2024-01-07T08:46:06;8.65;;;3.35;;
77146;SDS011;66121;52.584;9.694;2024-01-07T08:48:31;8.53;;;3.30;;
77146;SDS011;66121;52.584;9.694;2024-01-07T08:50:56;7.37;;;3.73;;
77146;SDS011;66121;52.584;9.694;2024-01-07T08:53:22;7.35;;;3.17;;
77146;SDS011;66121;52.584;9.694;2024-01-07T08:55:48;6.25;;;3.42;;
77146;SDS011;66121;52.584;9.694;2024-01-07T08:58:13;5.57;;;3.50;;
77146;SDS011;66121;52.584;9.694;2024-01-07T09:00:39;6.07;;;2.97;;
77146;SDS011;66121;52.584;9.694;2024-01-07T09:03:05;5.57;;;3.05;;
77146;SDS011;66121;52.584;9.694;2024-01-07T09:05:32;5.68;;;2.95;;
77146;SDS011;66121;52.584;9.694;2024-01-07T09:07:57;6.85;;;3.70;;
77146;SDS011;66121;52.584;9.694;2024-01-07T09:10:23;7.18;;;3.38;;
77146;SDS011;66121;52.584;9.694;2024-01-07T09:12:49;6.07;;;3.53;;
77146;SDS011;66121;52.584;9.694;2024-01-07T09:15:17;5.40;;;2.88;;
77146;SDS011;66121;52.584;9.694;2024-01-07T09:17:43;5.88;;;3.13;;
77146;SDS011;66121;52.584;9.694;2024-01-07T09:20:09;6.82;;;3.42;;
77146;SDS011;66121;52.584;9.694;2024-01-07T09:22:35;7.00;;;3.05;;
77146;SDS011;66121;52.584;9.694;2024-01-07T09:25:02;8.43;;;4.20;;
77146;SDS011;66121;52.584;9.694;2024-01-07T09:27:28;7.30;;;4.18;;
77146;SDS011;66121;52.584;9.694;2024-01-07T09:29:54;6.65;;;3.88;;
77146;SDS011;66121;52.584;9.694;2024-01-07T09:32:20;5.85;;;2.88;;
77146;SDS011;66121;52.584;9.694;2024-01-07T09:34:45;5.68;;;3.08;;
77146;SDS011;66121;52.584;9.694;2024-01-07T09:37:10;4.90;;;2.90;;
77146;SDS011;66121;52.584;9.694;2024-01-07T09:39:42;4.35;;;2.80;;
77146;SDS011;66121;52.584;9.694;2024-01-07T09:42:12;7.97;;;3.10;;
77146;SDS011;66121;52.584;9.694;2024-01-07T09:44:39;6.07;;;2.85;;
77146;SDS011;66121;52.584;9.694;2024-01-07T09:47:06;5.90;;;2.70;;
77146;SDS011;66121;52.584;9.694;2024-01-07T09:49:35;4.78;;;2.90;;
77146;SDS011;66121;52.584;9.694;2024-01-07T09:52:00;5.35;;;2.92;;
77146;SDS011;66121;52.584;9.694;2024-01-07T09:54:27;8.25;;;3.28;;
77146;SDS011;66121;52.584;9.694;2024-01-07T09:56:55;6.32;;;2.97;;
77146;SDS011;66121;52.584;9.694;2024-01-07T09:59:30;7.53;;;3.55;;
77146;SDS011;66121;52.584;9.694;2024-01-07T10:01:56;6.03;;;2.92;;
77146;SDS011;66121;52.584;9.694;2024-01-07T10:04:23;6.55;;;3.50;;
77146;SDS011;66121;52.584;9.694;2024-01-07T10:06:49;5.75;;;3.03;;
77146;SDS011;66121;52.584;9.694;2024-01-07T10:09:15;6.03;;;2.97;;
77146;SDS011;66121;52.584;9.694;2024-01-07T10:11:42;4.93;;;2.92;;
77146;SDS011;66121;52.584;9.694;2024-01-07T10:14:09;4.70;;;2.97;;
77146;SDS011;66121;52.584;9.694;2024-01-07T10:16:34;3.70;;;2.28;;
77146;SDS011;66121;52.584;9.694;2024-01-07T10:18:59;6.20;;;2.97;;
77146;SDS011;66121;52.584;9.694;2024-01-07T10:21:25;4.95;;;2.47;;
77146;SDS011;66121;52.584;9.694;2024-01-07T10:23:50;5.68;;;2.70;;
77146;SDS011;66121;52.584;9.694;2024-01-07T10:26:16;4.57;;;2.60;;
77146;SDS011;66121;52.584;9.694;2024-01-07T10:28:41;5.68;;;2.70;;
77146;SDS011;66121;52.584;9.694;2024-01-07T10:31:08;5.05;;;2.83;;
77146;SDS011;66121;52.584;9.694;2024-01-07T10:33:34;5.07;;;2.80;;
77146;SDS011;66121;52.584;9.694;2024-01-07T10:36:06;7.07;;;2.95;;
77146;SDS011;66121;52.584;9.694;2024-01-07T10:38:32;4.18;;;2.70;;
77146;SDS011;66121;52.584;9.694;2024-01-07T10:41:00;4.30;;;2.75;;
77146;SDS011;66121;52.584;9.694;2024-01-07T10:43:28;4.95;;;2.80;;
77146;SDS011;66121;52.584;9.694;2024-01-07T10:45:54;5.47;;;2.72;;
77146;SDS011;66121;52.584;9.694;2024-01-07T10:48:20;5.15;;;2.90;;
77146;SDS011;66121;52.584;9.694;2024-01-07T10:50:48;6.20;;;2.88;;
77146;SDS011;66121;52.584;9.694;2024-01-07T10:53:19;8.30;;;3.00;;
77146;SDS011;66121;52.584;9.694;2024-01-07T10:55:48;5.15;;;2.97;;
77146;SDS011;66121;52.584;9.694;2024-01-07T10:58:21;5.15;;;2.72;;
77146;SDS011;66121;52.584;9.694;2024-01-07T11:00:48;6.57;;;2.50;;
77146;SDS011;66121;52.584;9.694;2024-01-07T11:03:17;4.50;;;2.38;;
77146;SDS011;66121;52.584;9.694;2024-01-07T11:05:54;4.22;;;2.50;;
77146;SDS011;66121;52.584;9.694;2024-01-07T11:08:25;4.97;;;2.55;;
77146;SDS011;66121;52.584;9.694;2024-01-07T11:11:07;6.32;;;2.30;;
77146;SDS011;66121;52.584;9.694;2024-01-07T11:13:37;5.82;;;2.88;;
77146;SDS011;66121;52.584;9.694;2024-01-07T11:16:04;4.15;;;2.42;;
77146;SDS011;66121;52.584;9.694;2024-01-07T11:18:34;4.38;;;2.03;;
77146;SDS011;66121;52.584;9.694;2024-01-07T11:21:11;4.60;;;3.00;;
77146;SDS011;66121;52.584;9.694;2024-01-07T11:23:46;6.32;;;2.30;;
77146;SDS011;66121;52.584;9.694;2024-01-07T11:26:11;4.90;;;2.72;;
77146;SDS011;66121;52.584;9.694;2024-01-07T11:28:53;4.72;;;2.47;;
77146;SDS011;66121;52.584;9.694;2024-01-07T11:31:25;8.15;;;2.60;;
77146;SDS011;66121;52.584;9.694;2024-01-07T11:34:15;4.00;;;2.30;;
77146;SDS011;66121;52.584;9.694;2024-01-07T11:37:10;4.78;;;2.60;;
77146;SDS011;66121;52.584;9.694;2024-01-07T11:39:37;6.53;;;2.33;;
77146;SDS011;66121;52.584;9.694;2024-01-07T11:42:03;5.45;;;2.40;;
77146;SDS011;66121;52.584;9.694;2024-01-07T11:44:29;4.70;;;2.33;;
77146;SDS011;66121;52.584;9.694;2024-01-07T11:46:55;5.97;;;2.38;;
77146;SDS011;66121;52.584;9.694;2024-01-07T11:49:21;4.03;;;2.20;;
77146;SDS011;66121;52.584;9.694;2024-01-07T11:51:46;3.03;;;2.00;;
77146;SDS011;66121;52.584;9.694;2024-01-07T11:54:12;6.18;;;3.17;;
77146;SDS011;66121;52.584;9.694;2024-01-07T11:56:37;4.65;;;2.55;;
77146;SDS011;66121;52.584;9.694;2024-01-07T11:59:03;5.15;;;2.50;;
77146;SDS011;66121;52.584;9.694;2024-01-07T12:01:28;5.53;;;2.17;;
77146;SDS011;66121;52.584;9.694;2024-01-07T12:03:53;4.13;;;2.00;;
77146;SDS011;66121;52.584;9.694;2024-01-07T12:06:19;3.53;;;1.95;;
77146;SDS011;66121;52.584;9.694;2024-01-07T12:08:45;6.03;;;2.33;;
77146;SDS011;66121;52.584;9.694;2024-01-07T12:11:11;4.07;;;1.92;;
77146;SDS011;66121;52.584;9.694;2024-01-07T12:13:38;3.15;;;2.00;;
77146;SDS011;66121;52.584;9.694;2024-01-07T12:16:07;4.32;;;2.35;;
77146;SDS011;66121;52.584;9.694;2024-01-07T12:18:37;4.30;;;2.00;;
77146;SDS011;66121;52.584;9.694;2024-01-07T12:21:03;4.82;;;2.40;;
77146;SDS011;66121;52.584;9.694;2024-01-07T12:23:28;5.20;;;2.17;;
77146;SDS011;66121;52.584;9.694;2024-01-07T12:25:54;3.53;;;1.90;;
77146;SDS011;66121;52.584;9.694;2024-01-07T12:28:20;4.10;;;2.25;;
77146;SDS011;66121;52.584;9.694;2024-01-07T12:30:49;4.38;;;2.08;;
77146;SDS011;66121;52.584;9.694;2024-01-07T12:33:21;5.97;;;2.13;;
77146;SDS011;66121;52.584;9.694;2024-01-07T12:35:47;3.85;;;1.70;;
77146;SDS011;66121;52.584;9.694;2024-01-07T12:38:12;5.07;;;2.10;;
77146;SDS011;66121;52.584;9.694;2024-01-07T12:40:38;2.10;;;1.65;;
77146;SDS011;66121;52.584;9.694;2024-01-07T12:43:04;3.13;;;1.90;;
77146;SDS011;66121;52.584;9.694;2024-01-07T12:45:32;3.72;;;2.10;;
77146;SDS011;66121;52.584;9.694;2024-01-07T12:47:57;3.33;;;2.45;;
77146;SDS011;66121;52.584;9.694;2024-01-07T12:50:26;3.75;;;2.20;;
77146;SDS011;66121;52.584;9.694;2024-01-07T12:52:54;4.25;;;2.55;;
77146;SDS011;66121;52.584;9.694;2024-01-07T12:55:20;2.95;;;1.60;;
77146;SDS011;66121;52.584;9.694;2024-01-07T12:57:45;4.72;;;2.45;;
77146;SDS011;66121;52.584;9.694;2024-01-07T13:00:11;4.57;;;2.70;;
77146;SDS011;66121;52.584;9.694;2024-01-07T13:02:36;5.18;;;2.60;;
77146;SDS011;66121;52.584;9.694;2024-01-07T13:05:02;3.90;;;2.38;;
77146;SDS011;66121;52.584;9.694;2024-01-07T13:07:28;3.22;;;2.13;;
77146;SDS011;66121;52.584;9.694;2024-01-07T13:09:53;6.63;;;2.40;;
77146;SDS011;66121;52.584;9.694;2024-01-07T13:12:19;3.63;;;2.10;;
77146;SDS011;66121;52.584;9.694;2024-01-07T13:14:44;4.77;;;2.80;;
77146;SDS011;66121;52.584;9.694;2024-01-07T13:17:13;6.18;;;1.92;;
77146;SDS011;66121;52.584;9.694;2024-01-07T13:19:39;3.50;;;2.17;;
77146;SDS011;66121;52.584;9.694;2024-01-07T13:22:04;4.53;;;2.20;;
77146;SDS011;66121;52.584;9.694;2024-01-07T13:24:30;4.72;;;2.70;;
77146;SDS011;66121;52.584;9.694;2024-01-07T13:26:55;5.88;;;1.85;;
77146;SDS011;66121;52.584;9.694;2024-01-07T13:29:20;6.00;;;2.97;;
77146;SDS011;66121;52.584;9.694;2024-01-07T13:31:46;5.23;;;2.30;;
77146;SDS011;66121;52.584;9.694;2024-01-07T13:34:11;4.60;;;2.30;;
77146;SDS011;66121;52.584;9.694;2024-01-07T13:36:39;4.22;;;2.30;;
77146;SDS011;66121;52.584;9.694;2024-01-07T13:39:04;4.82;;;2.53;;
77146;SDS011;66121;52.584;9.694;2024-01-07T13:41:32;5.57;;;2.75;;
77146;SDS011;66121;52.584;9.694;2024-01-07T13:43:59;4.13;;;2.22;;
77146;SDS011;66121;52.584;9.694;2024-01-07T13:46:25;5.35;;;2.45;;
77146;SDS011;66121;52.584;9.694;2024-01-07T13:48:50;4.60;;;2.50;;
77146;SDS011;66121;52.584;9.694;2024-01-07T13:51:17;3.50;;;2.30;;
77146;SDS011;66121;52.584;9.694;2024-01-07T13:53:42;4.57;;;2.45;;
77146;SDS011;66121;52.584;9.694;2024-01-07T13:56:10;4.97;;;2.35;;
77146;SDS011;66121;52.584;9.694;2024-01-07T13:58:35;4.70;;;2.57;;
77146;SDS011;66121;52.584;9.694;2024-01-07T14:01:02;5.80;;;2.83;;
77146;SDS011;66121;52.584;9.694;2024-01-07T14:03:28;5.50;;;2.35;;
77146;SDS011;66121;52.584;9.694;2024-01-07T14:05:55;5.45;;;2.70;;
77146;SDS011;66121;52.584;9.694;2024-01-07T14:08:21;3.45;;;2.33;;
77146;SDS011;66121;52.584;9.694;2024-01-07T14:10:46;3.93;;;2.10;;
77146;SDS011;66121;52.584;9.694;2024-01-07T14:13:11;7.53;;;3.07;;
77146;SDS011;66121;52.584;9.694;2024-01-07T14:15:37;4.10;;;2.50;;
77146;SDS011;66121;52.584;9.694;2024-01-07T14:18:02;7.27;;;2.77;;
77146;SDS011;66121;52.584;9.694;2024-01-07T14:20:27;4.15;;;2.15;;
77146;SDS011;66121;52.584;9.694;2024-01-07T14:22:53;4.20;;;2.83;;
77146;SDS011;66121;52.584;9.694;2024-01-07T14:25:19;5.07;;;3.17;;
77146;SDS011;66121;52.584;9.694;2024-01-07T14:27:45;7.80;;;3.10;;
77146;SDS011;66121;52.584;9.694;2024-01-07T14:30:10;4.43;;;2.83;;
77146;SDS011;66121;52.584;9.694;2024-01-07T14:32:36;4.07;;;2.70;;
77146;SDS011;66121;52.584;9.694;2024-01-07T14:35:01;3.72;;;2.28;;
77146;SDS011;66121;52.584;9.694;2024-01-07T14:37:27;4.80;;;2.40;;
77146;SDS011;66121;52.584;9.694;2024-01-07T14:39:53;4.28;;;2.35;;